Last 48 Hours

Bell Hill-West

Hourly Data | America/Los_Angeles
as of 10/26/20 9:25 AM PDT
Date & Time Temp (°F) RH (%) Dew Pt (°F) Wet Bulb (°F) Wind Dir (°) Wind Spd (mph) Wind Gust (mph) Wind Gst Dir (°) Solar Rad (W/m2) Latest Rain (In) Daily Rain (In) Daily Min Temp (°F) Daily Max Temp (°F) Daily ETo (in)
10/26/20 - 0900 53.6 9 -3.1 36.5 E | 98 0.5 10.5 E | 88 100 0.00 0.00 41.5 56.0 0.000
10/26/20 - 0800 50.5 10 -3.8 34.9 ESE | 123 0.1 6.4 SSE | 152 7 0.00 0.00 41.5 56.0 0.000
10/26/20 - 0700 50.9 10 -3.0 35.2 SSE | 154 0.6 9.5 SSE | 164 0 0.00 0.00 41.5 56.0 0.000
10/26/20 - 0600 50.0 11 -1.9 34.8 SSW | 208 0.1 8.4 SSW | 204 0 0.00 0.00 41.5 56.0 0.000
10/26/20 - 0500 50.9 11 -1.2 35.4 S | 176 0.3 8.4 S | 184 0 0.00 0.00 41.5 56.0 0.000
10/26/20 - 0400 50.5 12 -0.8 35.2 S | 179 0.2 9.5 S | 189 0 0.00 0.00 41.5 56.0 0.000
10/26/20 - 0300 54.5 9 -2.8 37.0 SSE | 152 0.6 13.2 S | 182 0 0.00 0.00 41.5 56.0 0.000
10/26/20 - 0200 53.2 11 -0.1 36.7 ESE | 107 0.7 10.5 E | 92 0 0.00 0.00 41.5 56.0 0.000
10/26/20 - 0100 43.0 23 7.5 32.2 S | 183 0.0 4.4 S | 180 0 0.00 0.00 38.0 69.1 0.102
10/26/20 - 0000 50.1 15 4.1 35.5 NNE | 14 0.2 9.5 N | 11 0 0.00 0.00 38.0 69.1 0.102
10/25/20 - 2300 49.8 18 5.8 35.7 E | 93 0.3 10.8 E | 83 0 0.00 0.00 38.0 69.1 0.102
10/25/20 - 2200 45.6 26 12.4 34.5 N | 0 0.0 0.0 S | 188 0 0.00 0.00 38.0 69.1 0.102
10/25/20 - 2100 47.0 25 13.3 35.4 SSW | 208 0.0 4.8 SSW | 200 0 0.00 0.00 38.0 69.1 0.102
10/25/20 - 2000 55.6 15 8.7 39.0 ENE | 78 0.2 9.5 E | 99 0 0.00 0.00 38.0 69.1 0.102
10/25/20 - 1900 60.0 13 7.9 41.0 ENE | 67 0.2 10.5 ESE | 112 4 0.00 0.00 38.0 69.1 0.102
10/25/20 - 1800 66.6 10 8.0 43.8 NE | 53 0.5 8.8 N | 3 116 0.00 0.00 38.0 69.1 0.102
10/25/20 - 1700 68.7 9 8.5 44.8 NNE | 31 5.4 17.8 NNE | 25 307 0.00 0.00 38.0 69.1 0.102
10/25/20 - 1600 68.2 14 16.6 45.9 ENE | 63 4.1 16.8 NNE | 33 476 0.00 0.00 38.0 69.1 0.092
10/25/20 - 1500 67.5 23 28.5 48.5 E | 98 2.8 14.5 ESE | 114 595 0.00 0.00 38.0 68.1 0.079
10/25/20 - 1400 66.5 23 28.1 48.0 E | 99 3.2 14.2 E | 86 661 0.00 0.00 38.0 67.7 0.064
10/25/20 - 1300 66.2 24 28.5 48.0 E | 92 3.1 12.1 SE | 141 665 0.00 0.00 38.0 67.1 0.047
10/25/20 - 1200 64.2 32 33.6 48.8 ESE | 105 2.3 12.8 E | 80 607 0.00 0.00 38.0 65.8 0.031
10/25/20 - 1100 60.5 41 36.6 48.6 ESE | 104 2.0 12.5 NE | 45 494 0.00 0.00 38.0 62.1 0.017
10/25/20 - 1000 53.4 74 45.0 49.5 ENE | 58 0.3 9.5 E | 83 335 0.00 0.00 38.0 58.5 0.006
10/25/20 - 0900 42.1 94 40.3 41.5 N | 0 0.0 0.0 S | 182 118 0.00 0.00 38.0 47.7 0.000
10/25/20 - 0800 38.6 96 37.5 38.2 N | 0 0.0 0.0 S | 186 8 0.00 0.00 38.0 44.2 0.000
10/25/20 - 0700 39.0 94 37.4 38.4 N | 0 0.0 0.0 SSE | 168 0 0.00 0.00 38.6 44.2 0.000
10/25/20 - 0600 40.2 94 38.5 39.6 S | 187 0.4 3.1 S | 185 0 0.00 0.00 39.8 44.2 0.000
10/25/20 - 0500 40.7 92 38.6 39.9 N | 0 0.0 0.0 S | 190 0 0.00 0.00 40.3 44.2 0.000
10/25/20 - 0400 41.3 91 38.8 40.3 N | 0 0.0 0.0 S | 187 0 0.00 0.00 40.6 44.2 0.000
10/25/20 - 0300 42.2 90 39.4 41.1 SSW | 194 0.4 3.1 S | 186 0 0.00 0.00 41.8 44.2 0.000
10/25/20 - 0200 43.3 88 39.9 42.0 N | 0 0.0 0.0 S | 190 0 0.00 0.00 42.4 44.2 0.000
10/25/20 - 0100 44.7 86 40.9 43.2 N | 0 0.0 0.0 SSW | 201 0 0.00 0.00 39.9 72.9 0.116
10/25/20 - 0000 45.6 85 41.4 44.0 SSW | 198 0.2 3.1 SSW | 206 0 0.00 0.00 39.9 72.9 0.116
10/24/20 - 2300 47.1 83 42.3 45.1 SSW | 208 0.1 3.8 SSW | 208 0 0.00 0.00 39.9 72.9 0.116
10/24/20 - 2200 49.6 80 43.8 47.1 SSW | 195 2.2 4.1 S | 180 0 0.00 0.00 39.9 72.9 0.116
10/24/20 - 2100 52.1 75 44.5 48.6 SSW | 196 0.7 3.1 WSW | 238 0 0.00 0.00 39.9 72.9 0.116
10/24/20 - 2000 58.1 66 46.7 52.4 S | 176 2.8 6.1 S | 187 0 0.00 0.00 39.9 72.9 0.116
10/24/20 - 1900 61.6 60 47.4 54.0 S | 169 4.0 11.1 S | 190 4 0.00 0.00 39.9 72.9 0.116
10/24/20 - 1800 66.2 50 46.9 55.4 SSW | 199 6.2 12.1 S | 186 112 0.00 0.00 39.9 72.9 0.115
10/24/20 - 1700 69.9 38 43.0 54.6 SW | 222 6.8 12.5 SW | 232 293 0.00 0.00 39.9 72.9 0.111
10/24/20 - 1600 71.6 31 39.5 53.6 WSW | 246 7.2 14.8 W | 280 458 0.00 0.00 39.9 72.9 0.102
10/24/20 - 1500 72.3 27 36.2 52.6 WSW | 239 7.1 13.8 SSW | 206 584 0.00 0.00 39.9 72.9 0.087
10/24/20 - 1400 72.1 25 34.0 51.8 WSW | 254 7.0 13.2 WSW | 248 652 0.00 0.00 39.9 72.6 0.069
10/24/20 - 1300 71.7 26 35.2 52.0 W | 281 5.5 13.2 W | 267 661 0.00 0.00 39.9 72.5 0.050
10/24/20 - 1200 67.6 33 37.8 51.6 N | 8 2.4 11.1 N | 351 603 0.00 0.00 39.9 70.8 0.031
10/24/20 - 1100 63.5 43 40.5 51.4 N | 2 0.0 3.4 NNE | 13 487 0.00 0.00 39.9 66.0 0.016
10/24/20 - 1000 57.8 57 42.5 50.0 N | 0 0.0 0.0 SSW | 209 330 0.00 0.00 39.9 60.7 0.006
10/24/20 - 0900 45.3 80 39.6 42.8 N | 0 0.0 0.0 SSW | 194 134 0.00 0.00 39.9 51.5 0.001
Max 72.3 96 47.4 55.4 - 7.2 17.8 - 665 0.00 0.00 42.4 72.9 0.116
Avg 54.9 44 26.3 43.6 - 1.6 7.7 - 180 0.00 - - - -
Min 38.6 9 -3.8 32.2 - 0.0 0.0 - 0 0.00 0.00 38.0 44.2 0.000
Total - - - - - - - - - 0.00 - - - -